Time;durP1;ratioP1;P1;durP2;ratioP2;P2;SDS_P1;SDS_P2;PMS_P1;PMS_P2;Temp;Humidity;BMP_temperature;BMP_pressure;BME280_temperature;BME280_humidity;BME280_pressure;Samples;Min_cycle;Max_cycle;Signal;HPM_P1;HPM_P2
2022/06/30 00:01:36;;;;;;;;;;;13.40;99.90;;;;;;5035759;28;19913;-74
2022/06/30 00:04:03;;;;;;;;;;;13.50;99.90;;;;;;5036143;28;19916;-75
2022/06/30 00:06:29;;;;;;;;;;;13.50;99.90;;;;;;5036020;28;19913;-75
2022/06/30 00:08:56;;;;;;;;;;;13.50;99.90;;;;;;5035861;28;20309;-74
2022/06/30 00:11:23;;;;;;;;;;;13.60;99.90;;;;;;5035882;28;19910;-75
2022/06/30 00:13:50;;;;;;;;;;;13.60;99.90;;;;;;5035677;28;19913;-75
2022/06/30 00:16:17;;;;;;;;;;;13.60;99.90;;;;;;5035780;28;20414;-74
2022/06/30 00:18:45;;;;;;;;;;;13.60;99.90;;;;;;5035502;28;20107;-74
2022/06/30 00:21:12;;;;;;;;;;;13.60;99.90;;;;;;5035562;28;19913;-74
2022/06/30 00:23:39;;;;;;;;;;;13.60;99.90;;;;;;5035199;28;19921;-74
2022/06/30 00:26:06;;;;;;;;;;;13.60;99.90;;;;;;5035682;28;19984;-75
2022/06/30 00:28:33;;;;;;;;;;;13.60;99.90;;;;;;5035600;28;19909;-74
2022/06/30 00:30:59;;;;;;;;;;;13.60;99.90;;;;;;5035769;28;19909;-74
2022/06/30 00:33:26;;;;;;;;;;;13.60;99.90;;;;;;5035415;28;20360;-75
2022/06/30 00:35:53;;;;;;;;;;;13.70;99.90;;;;;;5035464;28;19917;-75
2022/06/30 00:38:19;;;;;;;;;;;13.70;99.90;;;;;;5035326;28;19909;-76
2022/06/30 00:40:46;;;;;;;;;;;13.80;99.90;;;;;;5035348;28;19921;-75
2022/06/30 00:43:13;;;;;;;;;;;13.80;99.90;;;;;;5035471;28;19909;-75
2022/06/30 00:45:41;;;;;;;;;;;13.80;99.90;;;;;;5035295;28;19943;-76
2022/06/30 00:48:08;;;;;;;;;;;13.90;99.90;;;;;;5035112;28;19913;-76
2022/06/30 00:50:35;;;;;;;;;;;13.90;99.90;;;;;;5035223;28;20348;-76
2022/06/30 00:53:03;;;;;;;;;;;13.80;99.90;;;;;;5035276;28;19916;-75
2022/06/30 00:55:30;;;;;;;;;;;13.90;99.90;;;;;;5034994;28;20283;-76
2022/06/30 00:57:59;;;;;;;;;;;13.90;99.90;;;;;;5035033;28;20418;-76
2022/06/30 01:00:28;;;;;;;;;;;13.90;99.90;;;;;;5035011;28;20020;-75
2022/06/30 01:02:55;;;;;;;;;;;13.90;99.90;;;;;;5034917;28;19917;-76
2022/06/30 01:05:22;;;;;;;;;;;14.00;99.90;;;;;;5050162;28;19910;-76
2022/06/30 01:07:49;;;;;;;;;;;14.10;99.90;;;;;;5034943;28;19910;-76
2022/06/30 01:13:00;;;;;;;;;;;14.20;99.90;;;;;;5034851;28;19916;-76
2022/06/30 01:15:27;;;;;;;;;;;14.30;99.90;;;;;;5034688;28;19909;-76
2022/06/30 01:17:53;;;;;;;;;;;14.30;99.90;;;;;;5034439;28;19924;-75
2022/06/30 01:20:25;;;;;;;;;;;14.30;99.90;;;;;;5066675;28;19924;-75
2022/06/30 01:22:51;;;;;;;;;;;14.30;99.90;;;;;;5034888;28;20381;-75
2022/06/30 01:25:18;;;;;;;;;;;14.30;99.90;;;;;;5034645;28;19909;-76
2022/06/30 01:27:45;;;;;;;;;;;14.50;99.90;;;;;;5034381;28;19913;-76
2022/06/30 01:30:12;;;;;;;;;;;14.50;99.90;;;;;;5034626;28;20276;-75
2022/06/30 01:32:38;;;;;;;;;;;14.60;99.90;;;;;;5034235;28;19909;-76
2022/06/30 01:35:06;;;;;;;;;;;14.60;99.90;;;;;;5033596;28;19933;-75
2022/06/30 01:40:09;;;;;;;;;;;14.80;99.90;;;;;;5164409;23;19926;-71
2022/06/30 01:42:36;;;;;;;;;;;14.90;99.90;;;;;;4983044;28;19925;-70
2022/06/30 01:45:03;;;;;;;;;;;14.90;99.90;;;;;;4974611;28;20009;-70
2022/06/30 01:47:30;;;;;;;;;;;14.90;99.90;;;;;;4987910;28;19913;-71
2022/06/30 01:49:57;;;;;;;;;;;14.90;99.90;;;;;;4994600;28;19964;-71
2022/06/30 01:52:23;;;;;;;;;;;15.00;99.90;;;;;;4994431;28;19949;-71
2022/06/30 01:54:50;;;;;;;;;;;15.00;99.90;;;;;;4994366;28;19909;-71
2022/06/30 01:57:17;;;;;;;;;;;15.00;99.90;;;;;;4994709;28;19910;-71
2022/06/30 01:59:43;;;;;;;;;;;15.10;99.90;;;;;;4994319;28;19975;-71
2022/06/30 02:02:10;;;;;;;;;;;15.20;99.90;;;;;;4994251;28;20279;-72
2022/06/30 02:04:50;;;;;;;;;;;15.20;99.90;;;;;;4994471;28;19910;-72
2022/06/30 02:07:21;;;;;;;;;;;15.10;99.90;;;;;;4994427;28;19910;-71
2022/06/30 02:09:51;;;;;;;;;;;15.10;99.90;;;;;;4994248;28;20371;-70
2022/06/30 02:15:03;;;;;;;;;;;15.00;99.90;;;;;;4994302;28;19964;-70
2022/06/30 02:17:29;;;;;;;;;;;15.00;99.90;;;;;;4993880;28;19917;-70
2022/06/30 02:19:56;;;;;;;;;;;15.00;99.90;;;;;;4993904;28;19941;-71
2022/06/30 02:22:23;;;;;;;;;;;15.10;99.90;;;;;;4993973;28;19914;-70
2022/06/30 02:24:50;;;;;;;;;;;15.10;99.90;;;;;;4994111;28;19914;-70
2022/06/30 02:27:17;;;;;;;;;;;15.10;99.90;;;;;;4994150;28;19910;-71
2022/06/30 02:29:43;;;;;;;;;;;15.10;99.90;;;;;;4994516;28;19917;-71
2022/06/30 02:32:10;;;;;;;;;;;15.20;99.90;;;;;;4993899;28;19951;-71
2022/06/30 02:34:37;;;;;;;;;;;15.20;99.90;;;;;;4994006;28;19949;-71
2022/06/30 02:37:03;;;;;;;;;;;15.10;99.90;;;;;;4993932;28;20356;-71
2022/06/30 02:39:30;;;;;;;;;;;15.20;99.90;;;;;;5008704;28;20295;-71
2022/06/30 02:41:57;;;;;;;;;;;15.20;99.90;;;;;;4993997;28;20001;-70
2022/06/30 02:44:23;;;;;;;;;;;15.20;99.90;;;;;;4993625;28;19910;-71
2022/06/30 02:46:51;;;;;;;;;;;15.20;99.90;;;;;;4993865;28;19910;-70
2022/06/30 02:49:18;;;;;;;;;;;15.30;99.90;;;;;;4993700;28;19964;-71
2022/06/30 02:51:45;;;;;;;;;;;15.30;99.90;;;;;;4993576;28;20314;-71
2022/06/30 02:54:12;;;;;;;;;;;15.40;99.90;;;;;;4993415;28;19910;-71
2022/06/30 02:56:39;;;;;;;;;;;15.40;99.90;;;;;;4993726;28;19992;-71
2022/06/30 02:59:05;;;;;;;;;;;15.40;99.90;;;;;;4993802;28;19921;-71
2022/06/30 03:01:32;;;;;;;;;;;15.40;99.90;;;;;;4993765;28;19910;-70
2022/06/30 03:04:01;;;;;;;;;;;15.40;99.90;;;;;;4993852;28;19917;-70
2022/06/30 03:06:28;;;;;;;;;;;15.50;99.90;;;;;;4993392;28;20356;-70
2022/06/30 03:08:56;;;;;;;;;;;15.50;99.90;;;;;;4992858;28;19994;-71
2022/06/30 03:11:23;;;;;;;;;;;15.50;99.90;;;;;;4992806;28;20062;-70
2022/06/30 03:13:49;;;;;;;;;;;15.40;99.90;;;;;;4992942;28;19914;-71
2022/06/30 03:16:17;;;;;;;;;;;15.50;99.90;;;;;;4992589;28;19910;-70
2022/06/30 03:18:44;;;;;;;;;;;15.50;99.90;;;;;;4992578;28;20356;-72
2022/06/30 03:21:11;;;;;;;;;;;15.40;99.90;;;;;;4992645;28;19910;-71
2022/06/30 03:23:38;;;;;;;;;;;15.40;99.90;;;;;;4992541;28;19910;-71
2022/06/30 03:26:05;;;;;;;;;;;15.50;99.90;;;;;;4992550;28;19914;-69
2022/06/30 03:28:33;;;;;;;;;;;15.40;99.90;;;;;;4992608;28;19910;-71
2022/06/30 03:30:59;;;;;;;;;;;15.40;99.90;;;;;;4992487;28;19989;-71
2022/06/30 03:33:29;;;;;;;;;;;15.40;99.90;;;;;;4992498;28;19956;-70
2022/06/30 03:35:57;;;;;;;;;;;15.50;99.90;;;;;;4992181;28;19964;-69
2022/06/30 03:38:26;;;;;;;;;;;15.50;99.90;;;;;;4991989;28;19910;-72
2022/06/30 03:40:53;;;;;;;;;;;15.60;99.90;;;;;;4992305;28;20351;-71
2022/06/30 03:43:21;;;;;;;;;;;15.60;99.90;;;;;;4992335;28;20345;-70
2022/06/30 03:45:47;;;;;;;;;;;15.60;99.90;;;;;;4992537;28;19913;-70
2022/06/30 03:48:14;;;;;;;;;;;15.50;99.90;;;;;;4992319;28;19941;-71
2022/06/30 03:50:41;;;;;;;;;;;15.50;99.90;;;;;;4992472;28;19913;-71
2022/06/30 03:53:08;;;;;;;;;;;15.60;99.90;;;;;;4992551;28;20348;-71
2022/06/30 03:55:38;;;;;;;;;;;15.50;99.90;;;;;;4992392;28;19914;-71
2022/06/30 03:58:06;;;;;;;;;;;15.60;99.90;;;;;;4994939;28;20430;-71
2022/06/30 04:00:34;;;;;;;;;;;15.50;99.90;;;;;;4995781;28;19925;-70
2022/06/30 04:03:04;;;;;;;;;;;15.50;99.90;;;;;;4995834;28;19941;-71
2022/06/30 04:05:31;;;;;;;;;;;15.60;99.90;;;;;;4995831;28;19949;-70
2022/06/30 04:07:57;;;;;;;;;;;15.50;99.90;;;;;;4995926;28;19910;-71
2022/06/30 04:10:24;;;;;;;;;;;15.50;99.90;;;;;;4995326;28;19910;-71
2022/06/30 04:12:51;;;;;;;;;;;15.60;99.90;;;;;;4995683;28;20297;-70
2022/06/30 04:15:18;;;;;;;;;;;15.60;99.90;;;;;;4995433;28;19917;-71
2022/06/30 04:17:44;;;;;;;;;;;15.60;99.90;;;;;;4995391;28;19956;-71
2022/06/30 04:20:20;;;;;;;;;;;15.60;99.90;;;;;;4995098;28;19917;-70
2022/06/30 04:22:47;;;;;;;;;;;15.70;99.90;;;;;;4995529;28;19910;-70
2022/06/30 04:25:14;;;;;;;;;;;15.60;99.90;;;;;;4995295;28;19917;-71
2022/06/30 04:27:42;;;;;;;;;;;15.60;99.90;;;;;;4995342;28;19909;-70
2022/06/30 04:30:09;;;;;;;;;;;15.70;99.90;;;;;;4994880;28;20355;-70
2022/06/30 04:32:39;;;;;;;;;;;15.60;99.90;;;;;;4995039;28;19920;-70
2022/06/30 04:35:06;;;;;;;;;;;15.60;99.90;;;;;;4995297;28;19937;-71
2022/06/30 04:37:33;;;;;;;;;;;15.70;99.90;;;;;;4995219;28;19989;-71
2022/06/30 04:42:47;;;;;;;;;;;15.60;99.90;;;;;;4995354;28;20422;-70
2022/06/30 04:45:14;;;;;;;;;;;15.60;99.90;;;;;;4995200;28;19909;-71
2022/06/30 04:47:41;;;;;;;;;;;15.60;99.90;;;;;;4991167;28;19910;-71
2022/06/30 04:50:08;;;;;;;;;;;15.60;99.90;;;;;;4994594;28;19910;-70
2022/06/30 04:52:35;;;;;;;;;;;15.60;99.90;;;;;;4994909;28;19910;-71
2022/06/30 04:55:02;;;;;;;;;;;15.60;99.90;;;;;;4994848;28;19909;-70
2022/06/30 04:57:28;;;;;;;;;;;15.50;99.90;;;;;;4994844;28;19964;-70
2022/06/30 04:59:55;;;;;;;;;;;15.50;99.90;;;;;;4994539;28;19929;-71
2022/06/30 05:02:22;;;;;;;;;;;15.50;99.90;;;;;;4993948;28;20441;-71
2022/06/30 05:04:48;;;;;;;;;;;15.50;99.90;;;;;;4994286;28;20224;-71
2022/06/30 05:07:16;;;;;;;;;;;15.50;99.90;;;;;;4994534;28;19964;-71
2022/06/30 05:09:43;;;;;;;;;;;15.50;99.90;;;;;;4993241;28;20308;-71
2022/06/30 05:12:10;;;;;;;;;;;15.50;99.90;;;;;;4994315;28;19909;-71
2022/06/30 05:14:37;;;;;;;;;;;15.40;99.90;;;;;;4994587;28;19909;-70
2022/06/30 05:17:04;;;;;;;;;;;15.40;99.90;;;;;;4994339;28;20379;-70
2022/06/30 05:19:31;;;;;;;;;;;15.40;99.90;;;;;;4994195;28;19914;-70
2022/06/30 05:21:58;;;;;;;;;;;15.40;99.90;;;;;;4994310;28;19914;-70
2022/06/30 05:27:10;;;;;;;;;;;15.40;99.90;;;;;;4995000;28;20031;-70
2022/06/30 05:29:36;;;;;;;;;;;15.40;99.90;;;;;;4995015;28;19913;-70
2022/06/30 05:32:04;;;;;;;;;;;15.30;99.90;;;;;;4994998;28;19913;-70
2022/06/30 05:34:31;;;;;;;;;;;15.40;99.90;;;;;;4994664;28;19914;-70
2022/06/30 05:36:57;;;;;;;;;;;15.40;99.90;;;;;;4994879;28;19937;-70
2022/06/30 05:39:24;;;;;;;;;;;15.30;99.90;;;;;;4994530;28;19922;-70
2022/06/30 05:41:51;;;;;;;;;;;15.30;99.90;;;;;;4994879;28;19932;-70
2022/06/30 05:44:17;;;;;;;;;;;15.30;99.90;;;;;;4994637;28;19910;-70
2022/06/30 05:46:44;;;;;;;;;;;15.30;99.90;;;;;;4994727;28;19910;-70
2022/06/30 05:49:11;;;;;;;;;;;15.30;99.90;;;;;;4994765;28;19953;-70
2022/06/30 05:51:38;;;;;;;;;;;15.20;99.90;;;;;;4994739;28;19949;-68
2022/06/30 05:54:04;;;;;;;;;;;15.30;99.90;;;;;;4994609;28;19909;-70
2022/06/30 05:56:31;;;;;;;;;;;15.20;99.90;;;;;;4994369;28;19944;-69
2022/06/30 05:58:58;;;;;;;;;;;15.20;99.90;;;;;;4994259;28;20335;-70
2022/06/30 06:01:25;;;;;;;;;;;15.20;99.90;;;;;;4994374;28;20015;-69
2022/06/30 06:03:51;;;;;;;;;;;15.20;99.90;;;;;;4994492;28;19953;-70
2022/06/30 06:06:18;;;;;;;;;;;15.20;99.90;;;;;;4994225;28;19910;-70
2022/06/30 06:08:45;;;;;;;;;;;15.10;99.90;;;;;;4994207;28;19983;-70
2022/06/30 06:11:11;;;;;;;;;;;15.10;99.90;;;;;;4994310;28;19941;-70
2022/06/30 06:13:38;;;;;;;;;;;15.10;99.90;;;;;;4994495;28;20087;-70
2022/06/30 06:16:05;;;;;;;;;;;15.10;99.90;;;;;;4994259;28;19913;-70
2022/06/30 06:18:32;;;;;;;;;;;15.10;99.90;;;;;;4994327;28;19913;-70
2022/06/30 06:20:58;;;;;;;;;;;15.10;99.90;;;;;;4993877;28;19918;-69
2022/06/30 06:23:25;;;;;;;;;;;15.00;99.90;;;;;;4994160;28;19938;-69
2022/06/30 06:25:52;;;;;;;;;;;15.00;99.90;;;;;;4994225;28;19952;-70
2022/06/30 06:31:03;;;;;;;;;;;15.00;99.90;;;;;;4994415;28;19917;-70
2022/06/30 06:33:30;;;;;;;;;;;15.00;99.90;;;;;;4993464;28;20375;-70
2022/06/30 06:35:57;;;;;;;;;;;15.00;99.90;;;;;;4993670;28;19910;-71
2022/06/30 06:38:23;;;;;;;;;;;14.90;99.90;;;;;;4993413;28;19910;-71
2022/06/30 06:40:50;;;;;;;;;;;14.90;99.90;;;;;;4993847;28;19918;-70
2022/06/30 06:43:17;;;;;;;;;;;14.90;99.90;;;;;;4993931;28;19917;-70
2022/06/30 06:45:43;;;;;;;;;;;14.90;99.90;;;;;;4994009;28;19941;-71
2022/06/30 06:48:10;;;;;;;;;;;14.90;99.90;;;;;;4993983;28;20048;-70
2022/06/30 06:50:37;;;;;;;;;;;14.80;99.90;;;;;;4993962;28;19917;-71
2022/06/30 06:53:04;;;;;;;;;;;14.80;99.90;;;;;;4991088;28;19910;-70
2022/06/30 06:55:31;;;;;;;;;;;14.80;99.90;;;;;;4991863;28;19910;-70
2022/06/30 06:57:57;;;;;;;;;;;14.80;99.90;;;;;;4991676;28;20236;-70
2022/06/30 07:00:24;;;;;;;;;;;14.80;99.90;;;;;;4991480;28;20406;-70
2022/06/30 07:02:51;;;;;;;;;;;14.80;99.90;;;;;;4991740;28;20364;-70
2022/06/30 07:05:17;;;;;;;;;;;14.70;99.90;;;;;;4991239;28;19913;-71
2022/06/30 07:07:44;;;;;;;;;;;14.70;99.90;;;;;;4991479;28;20144;-70
2022/06/30 07:10:11;;;;;;;;;;;14.70;99.90;;;;;;4991280;28;19910;-70
2022/06/30 07:12:41;;;;;;;;;;;14.70;99.90;;;;;;4991865;28;19910;-70
2022/06/30 07:15:09;;;;;;;;;;;14.70;99.90;;;;;;4991549;28;19910;-71
2022/06/30 07:17:39;;;;;;;;;;;14.60;99.90;;;;;;4991119;28;19918;-70
2022/06/30 07:20:06;;;;;;;;;;;14.60;99.90;;;;;;4991356;28;20344;-70
2022/06/30 07:22:42;;;;;;;;;;;14.60;99.90;;;;;;4991699;28;19964;-70
2022/06/30 07:25:09;;;;;;;;;;;14.60;99.90;;;;;;4991646;28;19952;-70
2022/06/30 07:27:42;;;;;;;;;;;14.50;99.90;;;;;;4991419;28;19918;-69
2022/06/30 07:30:11;;;;;;;;;;;14.60;99.90;;;;;;4991282;28;19910;-70
2022/06/30 07:32:40;;;;;;;;;;;14.60;99.90;;;;;;4993118;28;19972;-71
2022/06/30 07:35:07;;;;;;;;;;;14.50;99.90;;;;;;4995211;28;19921;-70
2022/06/30 07:37:40;;;;;;;;;;;14.50;99.90;;;;;;4994836;28;19914;-72
2022/06/30 07:40:07;;;;;;;;;;;14.50;99.90;;;;;;4994549;28;19926;-71
2022/06/30 07:42:37;;;;;;;;;;;14.50;99.90;;;;;;4994977;28;19914;-71
2022/06/30 07:45:07;;;;;;;;;;;14.50;99.90;;;;;;4994565;28;19914;-70
2022/06/30 07:47:34;;;;;;;;;;;14.50;99.90;;;;;;4994945;28;19914;-71
2022/06/30 07:50:01;;;;;;;;;;;14.50;99.90;;;;;;4994769;28;19914;-71
2022/06/30 07:52:28;;;;;;;;;;;14.50;99.90;;;;;;4994562;28;20020;-70
2022/06/30 07:54:58;;;;;;;;;;;14.40;99.90;;;;;;4994741;28;20387;-71
2022/06/30 07:57:29;;;;;;;;;;;14.40;99.90;;;;;;4994430;28;20166;-70
2022/06/30 07:59:56;;;;;;;;;;;14.40;99.90;;;;;;4994677;28;20283;-69
2022/06/30 08:02:22;;;;;;;;;;;14.40;99.90;;;;;;4982839;28;19922;-70
2022/06/30 08:04:49;;;;;;;;;;;14.40;99.90;;;;;;4975272;28;19921;-70
2022/06/30 08:07:16;;;;;;;;;;;14.30;99.90;;;;;;4975216;28;19932;-70
2022/06/30 08:09:43;;;;;;;;;;;14.40;99.90;;;;;;4975042;28;19949;-70
2022/06/30 08:12:10;;;;;;;;;;;14.30;99.90;;;;;;4974426;28;20005;-70
2022/06/30 08:14:37;;;;;;;;;;;14.30;99.90;;;;;;4974631;28;19918;-70
2022/06/30 08:17:04;;;;;;;;;;;14.30;99.90;;;;;;4975003;28;19914;-70
2022/06/30 08:19:31;;;;;;;;;;;14.30;99.90;;;;;;4975255;28;19918;-70
2022/06/30 08:21:57;;;;;;;;;;;14.30;99.90;;;;;;4975263;28;20371;-70
2022/06/30 08:24:27;;;;;;;;;;;14.30;99.90;;;;;;4974647;28;19910;-70
2022/06/30 08:26:54;;;;;;;;;;;14.30;99.90;;;;;;4974130;28;19910;-71
2022/06/30 08:29:21;;;;;;;;;;;14.30;99.90;;;;;;4974655;28;19910;-72
2022/06/30 08:31:47;;;;;;;;;;;14.30;99.90;;;;;;4974600;28;19914;-71
2022/06/30 08:34:14;;;;;;;;;;;14.30;99.90;;;;;;4974434;28;19914;-71
2022/06/30 08:36:41;;;;;;;;;;;14.30;99.90;;;;;;4974694;28;19914;-71
2022/06/30 08:42:02;;;;;;;;;;;14.30;99.90;;;;;;4974310;28;20008;-70
2022/06/30 08:42:03;;;;;;;;;;;14.30;99.90;;;;;;4973628;28;19973;-70
2022/06/30 08:44:34;;;;;;;;;;;14.30;99.90;;;;;;4974142;28;20275;-71
2022/06/30 08:47:02;;;;;;;;;;;14.30;99.90;;;;;;4974654;28;19910;-70
2022/06/30 08:49:29;;;;;;;;;;;14.20;99.90;;;;;;4974441;28;20372;-71
2022/06/30 08:51:57;;;;;;;;;;;14.20;99.90;;;;;;4973995;28;19953;-71
2022/06/30 08:54:25;;;;;;;;;;;14.20;99.90;;;;;;4974187;28;19917;-71
2022/06/30 08:56:53;;;;;;;;;;;14.20;99.90;;;;;;4973800;28;19989;-70
2022/06/30 08:59:20;;;;;;;;;;;14.20;99.90;;;;;;4974167;28;19922;-70
2022/06/30 09:01:47;;;;;;;;;;;14.20;99.90;;;;;;4974051;28;20456;-71
2022/06/30 09:04:14;;;;;;;;;;;14.10;99.90;;;;;;4973968;28;20010;-71
2022/06/30 09:06:44;;;;;;;;;;;14.10;99.90;;;;;;4975890;28;19918;-72
2022/06/30 09:09:15;;;;;;;;;;;14.20;99.90;;;;;;4976265;28;19911;-71
2022/06/30 09:11:48;;;;;;;;;;;14.10;99.90;;;;;;4975552;28;19917;-71
2022/06/30 09:14:33;;;;;;;;;;;14.10;99.90;;;;;;4975908;28;19953;-70
2022/06/30 09:17:01;;;;;;;;;;;14.10;99.90;;;;;;4976047;28;20001;-71
2022/06/30 09:19:29;;;;;;;;;;;14.10;99.90;;;;;;4975689;28;19965;-71
2022/06/30 09:22:03;;;;;;;;;;;14.00;99.90;;;;;;4975986;28;19914;-70
2022/06/30 09:24:30;;;;;;;;;;;14.10;99.90;;;;;;4975542;28;19911;-70
2022/06/30 09:27:19;;;;;;;;;;;14.00;99.90;;;;;;4975322;28;19911;-70
2022/06/30 09:29:50;;;;;;;;;;;14.00;99.90;;;;;;4975641;28;19914;-70
2022/06/30 09:32:17;;;;;;;;;;;14.00;99.90;;;;;;4975508;28;20320;-69
2022/06/30 09:34:44;;;;;;;;;;;14.00;99.90;;;;;;4975633;28;20341;-70
2022/06/30 09:37:22;;;;;;;;;;;14.00;99.90;;;;;;4975727;28;19911;-70
2022/06/30 09:39:49;;;;;;;;;;;13.90;99.90;;;;;;4975433;28;20291;-69
2022/06/30 09:42:36;;;;;;;;;;;13.80;99.90;;;;;;4974737;28;20013;-71
2022/06/30 09:45:03;;;;;;;;;;;13.80;99.90;;;;;;4975690;28;19925;-71
2022/06/30 09:47:30;;;;;;;;;;;13.80;99.90;;;;;;4975377;28;19917;-70
2022/06/30 09:50:00;;;;;;;;;;;13.80;99.90;;;;;;4975549;28;20416;-71
2022/06/30 09:52:27;;;;;;;;;;;13.70;99.90;;;;;;4974819;28;19914;-71
2022/06/30 09:54:54;;;;;;;;;;;13.70;99.90;;;;;;4974915;28;19910;-71
2022/06/30 09:57:22;;;;;;;;;;;13.80;99.90;;;;;;4975035;28;19917;-71
2022/06/30 09:59:59;;;;;;;;;;;13.70;99.90;;;;;;4989267;28;19914;-71
2022/06/30 10:02:33;;;;;;;;;;;13.70;99.90;;;;;;4975057;28;19960;-71
2022/06/30 10:04:59;;;;;;;;;;;13.70;99.90;;;;;;4975056;28;19914;-71
2022/06/30 10:07:26;;;;;;;;;;;13.70;99.90;;;;;;4974893;28;19914;-70
2022/06/30 10:09:53;;;;;;;;;;;13.70;99.90;;;;;;4975084;28;19910;-71
2022/06/30 10:12:21;;;;;;;;;;;13.70;99.90;;;;;;4974854;28;19910;-71
2022/06/30 10:14:49;;;;;;;;;;;13.70;99.90;;;;;;4975051;28;19913;-71
2022/06/30 10:17:18;;;;;;;;;;;13.80;99.90;;;;;;4975039;28;20019;-71
2022/06/30 10:19:45;;;;;;;;;;;13.70;99.90;;;;;;4974814;28;19922;-71
2022/06/30 10:22:13;;;;;;;;;;;13.70;99.90;;;;;;4974569;28;20000;-71
2022/06/30 10:24:42;;;;;;;;;;;13.70;99.90;;;;;;4974822;28;20004;-71
2022/06/30 10:27:15;;;;;;;;;;;13.70;99.90;;;;;;4974583;28;19910;-71
2022/06/30 10:30:09;;;;;;;;;;;13.60;99.90;;;;;;4974902;28;20368;-71
2022/06/30 10:32:48;;;;;;;;;;;13.60;99.90;;;;;;4970594;28;20332;-70
2022/06/30 10:35:15;;;;;;;;;;;13.70;99.90;;;;;;4974875;28;19964;-70
2022/06/30 10:37:57;;;;;;;;;;;13.60;99.90;;;;;;4974590;28;19910;-70
2022/06/30 10:40:23;;;;;;;;;;;13.60;99.90;;;;;;4974260;28;19922;-71
2022/06/30 10:42:55;;;;;;;;;;;13.60;99.90;;;;;;4974616;28;20005;-71
2022/06/30 10:45:27;;;;;;;;;;;13.60;99.90;;;;;;4974710;28;19914;-70
2022/06/30 10:47:58;;;;;;;;;;;13.60;99.90;;;;;;4974539;28;19933;-70
2022/06/30 10:50:32;;;;;;;;;;;13.60;99.90;;;;;;4974575;28;20331;-71
2022/06/30 10:52:59;;;;;;;;;;;13.60;99.90;;;;;;4974446;28;20009;-71
2022/06/30 10:55:26;;;;;;;;;;;13.60;99.90;;;;;;4974521;28;19941;-72
2022/06/30 10:58:02;;;;;;;;;;;13.60;99.90;;;;;;4974530;28;19957;-71
2022/06/30 11:00:49;;;;;;;;;;;13.50;99.90;;;;;;4974171;28;19922;-70
2022/06/30 11:03:40;;;;;;;;;;;13.50;99.90;;;;;;4974128;28;19941;-71
2022/06/30 11:06:12;;;;;;;;;;;13.60;99.90;;;;;;4974030;28;20403;-72
2022/06/30 11:08:39;;;;;;;;;;;13.50;99.90;;;;;;4978275;28;19910;-71
2022/06/30 11:11:21;;;;;;;;;;;13.60;99.90;;;;;;4978314;28;19918;-71
2022/06/30 11:13:48;;;;;;;;;;;13.60;99.90;;;;;;4978334;28;19914;-71
2022/06/30 11:16:19;;;;;;;;;;;13.50;99.90;;;;;;4978070;28;19911;-71
2022/06/30 11:18:47;;;;;;;;;;;13.50;99.90;;;;;;4978280;28;19914;-71
2022/06/30 11:21:13;;;;;;;;;;;13.50;99.90;;;;;;4977935;28;19976;-71
2022/06/30 11:23:42;;;;;;;;;;;13.40;99.90;;;;;;4978188;28;20288;-70
2022/06/30 11:28:54;;;;;;;;;;;13.40;99.90;;;;;;4978500;28;19938;-70
2022/06/30 11:31:22;;;;;;;;;;;13.40;99.90;;;;;;4978205;28;19956;-70
2022/06/30 11:33:57;;;;;;;;;;;13.40;99.90;;;;;;4977986;28;19910;-70
2022/06/30 11:36:23;;;;;;;;;;;13.30;99.90;;;;;;4977634;28;19910;-70
2022/06/30 11:39:17;;;;;;;;;;;13.30;99.90;;;;;;4977819;28;20292;-70
2022/06/30 11:42:03;;;;;;;;;;;13.30;99.90;;;;;;4976233;28;19919;-71
2022/06/30 11:44:38;;;;;;;;;;;13.30;99.90;;;;;;4977723;28;19950;-71
2022/06/30 11:47:10;;;;;;;;;;;13.20;99.90;;;;;;4977802;28;19910;-69
2022/06/30 11:49:44;;;;;;;;;;;13.20;99.90;;;;;;4977751;28;19973;-70
2022/06/30 11:52:17;;;;;;;;;;;13.20;99.90;;;;;;4977256;28;19910;-72
2022/06/30 11:54:52;;;;;;;;;;;13.20;99.90;;;;;;4977602;28;19911;-71
2022/06/30 11:57:19;;;;;;;;;;;13.20;99.90;;;;;;4977661;28;19910;-70
2022/06/30 11:59:47;;;;;;;;;;;13.20;99.90;;;;;;4977408;28;19922;-71
2022/06/30 12:02:17;;;;;;;;;;;13.20;99.90;;;;;;4977185;28;19910;-71
2022/06/30 12:04:44;;;;;;;;;;;13.20;99.90;;;;;;4977252;28;20008;-70
2022/06/30 12:07:12;;;;;;;;;;;13.20;99.90;;;;;;4977320;28;19973;-70
2022/06/30 12:09:39;;;;;;;;;;;13.20;99.90;;;;;;4977428;28;20315;-70
2022/06/30 12:12:08;;;;;;;;;;;13.20;99.90;;;;;;4977316;28;20261;-71
2022/06/30 12:14:37;;;;;;;;;;;13.10;99.90;;;;;;4977244;28;20272;-71
2022/06/30 12:17:07;;;;;;;;;;;13.10;99.90;;;;;;4977307;28;19910;-71
2022/06/30 12:19:34;;;;;;;;;;;13.10;99.90;;;;;;4976740;28;19922;-71
2022/06/30 12:22:03;;;;;;;;;;;13.10;99.90;;;;;;4977034;28;19910;-71
2022/06/30 12:24:30;;;;;;;;;;;13.20;99.90;;;;;;4976971;28;19914;-71
2022/06/30 12:27:00;;;;;;;;;;;13.10;99.90;;;;;;4977090;28;19910;-71
2022/06/30 12:29:28;;;;;;;;;;;13.10;99.90;;;;;;4977061;28;20057;-71
2022/06/30 12:31:58;;;;;;;;;;;13.10;99.90;;;;;;4977086;28;19917;-70
2022/06/30 12:34:25;;;;;;;;;;;13.10;99.90;;;;;;4976790;28;19941;-71
2022/06/30 12:36:55;;;;;;;;;;;13.10;99.90;;;;;;4976746;28;20257;-71
2022/06/30 12:39:22;;;;;;;;;;;13.00;99.90;;;;;;4976544;28;19922;-71
2022/06/30 12:41:49;;;;;;;;;;;13.10;99.90;;;;;;4976799;28;19914;-70
2022/06/30 12:44:16;;;;;;;;;;;13.00;99.90;;;;;;4976395;28;20368;-71
2022/06/30 12:46:47;;;;;;;;;;;13.00;99.90;;;;;;4976801;28;19910;-71
2022/06/30 12:49:23;;;;;;;;;;;13.00;99.90;;;;;;4976766;28;19973;-71
2022/06/30 12:51:50;;;;;;;;;;;13.00;99.90;;;;;;4976516;28;20384;-71
2022/06/30 12:54:23;;;;;;;;;;;12.90;99.90;;;;;;4976258;28;19910;-71
2022/06/30 12:56:52;;;;;;;;;;;13.00;99.90;;;;;;4976629;28;19956;-72
2022/06/30 12:59:20;;;;;;;;;;;12.90;99.90;;;;;;4976541;28;19918;-72
2022/06/30 13:01:56;;;;;;;;;;;12.90;99.90;;;;;;4976561;28;19918;-72
2022/06/30 13:04:27;;;;;;;;;;;12.90;99.90;;;;;;4976171;28;19911;-72
2022/06/30 13:06:55;;;;;;;;;;;12.90;99.90;;;;;;4976525;28;19956;-72
2022/06/30 13:09:23;;;;;;;;;;;12.90;99.90;;;;;;4976301;28;20352;-71
2022/06/30 13:11:54;;;;;;;;;;;12.90;99.90;;;;;;4976361;28;19910;-72
2022/06/30 13:14:22;;;;;;;;;;;12.90;99.90;;;;;;4976022;28;20433;-72
2022/06/30 13:16:49;;;;;;;;;;;12.90;99.90;;;;;;4976184;28;19910;-70
2022/06/30 13:19:17;;;;;;;;;;;12.90;99.90;;;;;;4976292;28;19914;-71
2022/06/30 13:21:44;;;;;;;;;;;12.90;99.90;;;;;;4975916;28;19914;-71
2022/06/30 13:24:10;;;;;;;;;;;12.90;99.90;;;;;;4975818;28;19916;-71
2022/06/30 13:26:37;;;;;;;;;;;12.90;99.90;;;;;;4975958;28;19916;-71
2022/06/30 13:29:05;;;;;;;;;;;12.90;99.90;;;;;;4975461;28;19910;-71
2022/06/30 13:31:33;;;;;;;;;;;12.90;99.90;;;;;;4975489;28;19910;-71
2022/06/30 13:34:00;;;;;;;;;;;12.90;99.90;;;;;;4991467;28;19976;-71
2022/06/30 13:36:30;;;;;;;;;;;12.90;99.90;;;;;;4975172;28;20578;-71
2022/06/30 13:38:57;;;;;;;;;;;12.80;99.90;;;;;;4975491;28;19926;-71
2022/06/30 13:41:24;;;;;;;;;;;12.90;99.90;;;;;;4975645;28;19918;-71
2022/06/30 13:43:51;;;;;;;;;;;12.80;99.90;;;;;;4975542;28;20258;-71
2022/06/30 13:46:18;;;;;;;;;;;12.80;99.90;;;;;;4975325;28;19911;-71
2022/06/30 13:48:45;;;;;;;;;;;12.80;99.90;;;;;;4975511;28;20328;-70
2022/06/30 13:51:12;;;;;;;;;;;12.80;99.90;;;;;;4975475;28;19911;-71
2022/06/30 13:53:38;;;;;;;;;;;12.80;99.90;;;;;;4975598;28;19910;-72
2022/06/30 13:56:05;;;;;;;;;;;12.80;99.90;;;;;;4975409;28;20005;-71
2022/06/30 13:58:32;;;;;;;;;;;12.80;99.90;;;;;;4975270;28;19914;-71
2022/06/30 14:00:59;;;;;;;;;;;12.70;99.90;;;;;;4975300;28;20384;-71
2022/06/30 14:03:25;;;;;;;;;;;12.70;99.90;;;;;;4975280;28;19918;-72
2022/06/30 14:05:52;;;;;;;;;;;12.70;99.90;;;;;;4975202;28;19989;-71
2022/06/30 14:08:19;;;;;;;;;;;12.70;99.90;;;;;;4974867;28;20014;-71
2022/06/30 14:10:45;;;;;;;;;;;12.70;99.90;;;;;;4975013;28;19914;-71
2022/06/30 14:13:12;;;;;;;;;;;12.70;99.90;;;;;;4975118;28;19914;-71
2022/06/30 14:15:39;;;;;;;;;;;12.70;99.90;;;;;;4975249;28;19914;-71
2022/06/30 14:18:06;;;;;;;;;;;12.70;99.90;;;;;;4974919;28;19914;-71
2022/06/30 14:20:33;;;;;;;;;;;12.70;99.90;;;;;;4974739;28;20364;-71
2022/06/30 14:22:59;;;;;;;;;;;12.60;99.90;;;;;;4975201;28;20341;-71
2022/06/30 14:25:26;;;;;;;;;;;12.50;99.90;;;;;;4975012;28;20337;-71
2022/06/30 14:27:53;;;;;;;;;;;12.50;99.90;;;;;;4974942;28;20357;-71
2022/06/30 14:30:21;;;;;;;;;;;12.40;99.90;;;;;;4974660;28;20064;-71
2022/06/30 14:32:48;;;;;;;;;;;12.40;99.90;;;;;;4975026;28;19937;-71
2022/06/30 14:35:15;;;;;;;;;;;12.30;99.90;;;;;;4974757;28;19910;-71
2022/06/30 14:37:42;;;;;;;;;;;12.40;99.90;;;;;;4974906;28;19917;-70
2022/06/30 14:40:12;;;;;;;;;;;12.40;99.90;;;;;;4974372;28;20489;-71
2022/06/30 14:42:48;;;;;;;;;;;12.40;99.90;;;;;;4974759;28;19917;-71